WEATHER DATA

YESTERDAY
Time Temp. Dewp. Hum. Wind dir Wind speed Wind gust Bar. 1h Prec. 24h Prec.
00:14 9.7 9.7 100 140 0.3 1.1 1016.9 0.5172 0.2000
00:23 9.7 9.7 100 163 0.3 1.4 1016.7 0.5172 0.3000
00:33 9.7 9.7 100 143 0.3 1.4 1016.5 0.5172 0.3000
00:43 9.7 9.7 100 225 0.3 0.8 1016.4 0.5172 0.4000
00:53 9.6 9.6 100 135 0.3 1.1 1016.4 0.5172 0.5000
01:03 9.6 9.6 100 146 0.3 1.1 1016.3 0.3103 0.5000
01:24 9.5 9.5 100 185 0.3 1.4 1016 0.3103 0.6000
01:33 9.6 9.6 100 159 0.3 1.4 1015.8 0.3103 0.6000
01:43 9.6 9.6 100 171 0.3 1.1 1015.7 0.2068 0.7000
02:04 9.6 9.6 100 153 0.3 0.8 1015.4 0.5172 1.0000
02:13 9.5 9.5 100 183 0.3 1.7 1015.5 0.7241 1.3000
02:23 9.6 9.6 100 167 0.8 1.4 1015.1 0.7241 1.3000
02:43 9.6 9.6 100 270 0.3 1.1 1014.8 0.6206 1.3000
02:53 9.6 9.6 100 201 0.3 1.1 1014.5 0.4137 1.4000
03:14 9.7 9.7 100 129 0.8 2.2 1014.1 0.2068 1.6000
03:23 9.7 9.7 100 124 0.8 1.7 1014.1 0.2068 1.6000
03:34 9.8 9.8 100 90 0.3 1.1 1014.1 0.2068 1.6000
03:44 9.8 9.8 100 90 0.3 1.1 1013.7 0.1034 1.6000
03:54 9.8 9.8 100 135 0.8 1.4 1013.7 0.1034 1.6000
04:03 9.9 9.9 100 135 0.3 1.1 1013.3 0.1034 1.7000
04:14 9.9 9.9 100 149 0.8 1.7 1013.1 0.1034 1.7000
04:24 9.9 9.9 100 135 0.8 2.2 1013.1 0.1034 1.7000
04:29 9.9 9.9 100 196 0.3 1.1 1012.8 0.2068 1.8000
04:44 10 10 100 123 0.3 1.4 1012.6 0.3103 1.9000
04:54 10 10 100 90 0.3 1.1 1012.6 0.2068 1.9000
05:04 10 10 100 135 0.3 1.4 1012.2 0.4137 2.1000
05:13 10 10 100 135 0.3 1.1 1012.1 0.4137 2.1000
05:24 10 10 100 117 0.8 1.4 1011.9 0.4137 2.2000
05:34 10 10 100 90 0.3 1.1 1011.7 0.3103 2.2000
05:44 10 10 100 168 0.3 0.8 1011.6 0.4137 2.3000
05:54 10 10 100 45 0.3 0.8 1011.7 0.2068 2.3000
06:04 10 10 100 147 0.8 1.7 1011.3 0.4137 2.5000
06:14 10 10 100 168 0.3 1.7 1011.1 0.4137 2.6000
06:24 10.1 10.1 100 90 0.3 1.4 1011 0.4137 2.6000
06:34 10.1 10.1 100 329 0.3 1.1 1010.8 0.3103 2.6000
06:44 10.1 10.1 100 135 0.8 1.4 1010.7 0.4137 2.7000
06:54 10 10 100 90 0.3 1.4 1010.6 0.4137 2.9000
07:04 10.1 10.1 100 45 0.3 1.1 1010.5 0.4137 3.0000
07:14 10.1 10.1 100 188 0.3 1.1 1010.4 0.4137 3.0000
07:24 10.1 10.1 100 270 0.3 1.1 1010.3 0.4137 3.0000
07:34 10.1 10.1 100 191 0.3 1.1 1010.2 0.4137 3.1000
07:44 10.2 10.2 100 56 0.3 0.8 1010.3 0.2068 3.1000
07:54 10.2 10.2 100 220 0.3 1.1 1010 0.2068 3.2000
08:04 10.2 10.2 100 90 0.3 1.1 1010 0.2068 3.2000
08:14 10.3 10.3 100 270 0.3 1.1 1009.9 0.3103 3.3000
08:24 10.3 10.3 100 225 0.3 0.8 1009.7 0.4137 3.4000
08:34 10.4 10.4 100 270 0.3 0.8 1009.7 0.3103 3.4000
08:45 10.4 10.4 100 145 0.3 1.1 1009.6 0.2068 3.4000
08:54 10.5 10.5 100 315 0.3 1.1 1009.6 0.2068 3.4000
09:04 10.6 10.6 100 149 0.3 1.1 1009.5 0.2068 3.5000
09:14 10.6 10.6 100 90 0.3 1.1 1009.4 0.3103 3.6000
09:24 10.6 10.6 100 198 0.3 1.1 1009.4 0.2068 3.6000
09:34 10.7 10.7 100 209 0.3 1.1 1009.4 0.2068 3.6000
09:44 10.8 10.8 100 90 0.3 1.1 1009.1 0.2068 3.6000
09:55 10.8 10.8 100 183 0.3 1.1 1009.1 0.3103 3.8000
10:05 11 11 100 210 0.3 1.1 1009.2 0.3103 3.9000
10:14 11.1 11.1 100 158 0.3 1.4 1009.1 0.3103 3.9000
10:25 11.2 11.2 100 165 0.3 1.4 1008.9 0.5172 4.1000
10:35 11.3 11.3 100 170 0.3 0.8 1008.8 0.5172 4.1000
10:44 11.4 11.4 100 195 0.3 0.8 1008.8 0.4137 4.1000
10:54 11.4 11.4 100 174 0.8 1.7 1008.6 0.5172 4.3000
11:05 11.5 11.5 100 205 0.3 1.1 1008.5 0.5172 4.4000
11:15 11.6 11.6 100 154 0.3 1.4 1008.3 0.4137 4.4000
11:24 11.6 11.6 100 198 0.3 1.4 1007.9 0.4137 4.6000
11:35 11.8 11.8 100 123 0.3 0.8 1007.8 0.4137 4.6000
11:45 11.8 11.8 100 158 0.8 1.7 1007.5 0.3103 4.6000
11:55 11.9 11.9 100 195 0.3 1.4 1007.5 0.3103 4.7000
12:05 12 12 100 216 0.3 1.1 1007.3 0.3103 4.8000
12:15 11.9 11.9 100 182 0.8 1.1 1007 0.5172 5.0000
12:25 12 12 100 201 0.8 1.7 1006.6 0.4137 5.0000
12:35 12.2 12.2 100 168 0.3 0.8 1006.3 0.6206 5.2000
12:45 12.3 12.3 100 270 0.3 1.4 1006.1 0.5172 5.2000
12:55 12.2 12.2 100 158 0.3 1.4 1005.8 0.4137 5.2000
13:05 12.2 12.2 100 270 0.3 1.1 1005.8 0.5172 5.3000
13:15 12.2 12.2 100 356 1.1 2.2 1006.2 1.1379 6.1000
13:25 12.2 12.2 100 11 1.1 1.7 1005.8 1.7586 6.9000
13:35 12.2 12.2 100 29 1.1 2.2 1005.5 1.8620 7.0000
13:45 12.2 12.2 100 21 0.8 1.4 1004.8 2.0689 7.2000
13:56 12.3 12.3 100 30 1.1 2.2 1004.4 2.1724 7.4000
14:05 12.2 12.2 100 108 1.1 2.2 1004.2 2.4827 7.8000
14:15 12 12 100 293 1.4 3.3 1005 1.8620 8.4000
14:25 11.9 11.9 100 315 1.1 2.2 1004.2 2.7931 9.8000
14:36 11.8 11.8 100 270 1.1 2.5 1004 3.4137 10.6000
14:45 11.6 11.6 100 311 1.4 4.7 1004.5 3.4137 10.8000
15:01 11.3 11.3 100 283 1.7 8.6 1005.6 3.9310 11.4000
15:10 11.2 11.2 100 280 1.1 3.6 1005.9 4.1379 12.2000
15:20 11 11 100 237 0.8 1.7 1005.8 3.4137 12.6000
15:30 10.9 10.9 100 225 1.1 3.6 1005.2 2.6896 12.9000
15:40 10.8 10.8 100 260 1.1 3.9 1005.9 2.4827 13.1000
15:50 10.7 10.7 100 291 1.4 3.9 1005.9 2.2758 13.1000
16:00 10.7 10.7 100 248 1.1 2.5 1005.8 1.8620 13.2000
16:11 10.6 10.6 100 270 1.4 3.6 1006 1.0344 13.2000
16:20 10.4 10.4 100 278 1.4 4.2 1006.4 0.6206 13.2000
16:30 10.3 10.3 100 270 0.8 2.8 1006.7 0.3103 13.2000
16:40 10.3 10.3 100 289 1.7 4.2 1007 0.1034 13.2000
16:49 10 10 100 274 2.2 8.3 1007.4 0.1034 13.2000
16:59 9.9 9.9 100 251 0.8 2.8 1007.8 0.0000 13.2000
17:09 9.9 9.9 100 255 1.1 2.5 1008 0.0000 13.2000
17:19 9.7 9.7 100 270 0.8 2.5 1008.2 0.0000 13.2000
17:29 9.6 9.6 100 298 1.4 4.7 1008.7 0.0000 13.2000
17:39 9.6 9.6 100 261 1.7 6.1 1008.8 0.0000 13.2000
17:49 9.6 9.6 100 293 1.4 3.3 1009.2 0.0000 13.2000
17:59 9.5 9.5 100 270 1.1 3.3 1009.4 0.0000 13.2000
18:09 9.4 9.4 100 246 1.4 4.2 1009.9 0.0000 13.2000
18:20 9.3 9.3 100 270 1.1 3.3 1010 0.0000 13.2000
18:39 9.2 9.2 100 235 0.8 2.2 1011 0.0000 13.2000
18:50 9.1 9.1 100 257 1.4 3.6 1011.4 0.1034 13.3000
19:00 8.9 8.9 100 285 1.7 3.6 1012 0.1034 13.3000
19:09 8.7 8.7 100 270 1.1 2.5 1012.5 0.2068 13.4000
19:19 8.6 8.6 100 256 1.1 2.2 1012.9 0.2068 13.4000
19:30 8.4 8.4 100 270 1.1 3.6 1013.3 0.2068 13.4000
19:40 8.2 8.2 100 260 1.1 2.5 1014.1 0.2068 13.4000
19:44 8.2 8.2 100 281 1.1 2.5 1014.2 0.2068 13.6000
19:54 8 8 100 270 0.8 2.2 1014.5 0.3103 13.7000
20:05 7.9 7.9 100 270 0.8 2.2 1014.8 0.2068 13.7000
20:14 7.9 7.9 100 296 0.8 2.5 1015.1 0.3103 13.8000
20:24 7.9 7.9 100 270 0.8 2.5 1015.5 0.3103 13.8000
20:35 7.9 7.9 100 270 0.3 1.4 1016 0.4137 13.9000
20:45 7.9 7.9 100 250 1.1 2.5 1016.3 0.4137 14.0000
20:54 7.9 7.9 100 249 0.8 2.2 1016.7 0.3103 14.0000
21:05 7.9 7.9 100 278 1.1 2.8 1016.9 0.3103 14.1000
21:15 8 8 100 246 0.8 2.2 1017.4 0.4137 14.2000
21:25 8 8 100 232 0.8 2.8 1017.5 0.4137 14.3000
21:34 8 8 100 299 0.8 1.7 1017.7 0.4137 14.3000
21:45 7.9 7.9 100 243 0.8 1.4 1018.1 0.3103 14.3000
21:55 8 8 100 230 0.8 2.5 1018.2 0.3103 14.3000
22:05 8 8 100 270 0.3 1.7 1018.5 0.2068 14.3000
22:15 8 8 100 306 0.8 2.2 1018.8 0.1034 14.3000
22:25 8.1 8.1 100 315 0.3 1.7 1019 0.0000 14.3000
22:35 8.1 8.1 100 287 1.1 2.5 1019.2 0.0000 14.3000
22:45 8.1 8.1 100 270 1.1 2.8 1019.6 0.1034 14.4000
22:56 8.1 8.1 100 253 0.8 1.7 1019.8 0.1034 14.4000
23:05 8.2 8.2 100 246 1.1 2.2 1020.1 0.1034 14.4000
23:15 8.1 8.1 100 312 0.8 2.2 1020.4 0.1034 14.4000
23:26 8.1 8.1 100 330 0.3 1.4 1020.5 0.1034 14.4000
23:36 8.1 8.1 100 237 0.8 1.7 1020.8 0.1034 14.4000
23:45 8.1 8.1 100 258 0.8 2.8 1021 0.0000 14.4000
23:55 8.2 8.2 100 270 0.3 1.7 1021.3 0.0000 14.4000

DAY STATISTIC

2018-09-23
TEMPERATURE
AVERAGE
10.0
HIGH
12.3
12:45
LOW
7.9
20:05
PRESSURE
AVERAGE
1011.5
HIGH
1021.3
23:55
LOW
1004.0
14:36
DEWPOINT
AVERAGE
10.0
HIGH
12.3
12:45
LOW
7.9
20:05
HUMIDITY
AVERAGE
100
HIGH
100
00:14
LOW
100
00:14
WIND SPEED
AVERAGE
0.7
HIGH
2.2
16:49
WIND GUST
AVERAGE
2.0
HIGH
8.6
15:01
WIND DIRECTION
PREVAILING
W
31.2%
N
2.2
NE
3.6
E
7.2
SE
15.2
S
18.8
SW
12.3
W
31.2
NW
9.4
PRECIPITATION
RAIN HOUR
4.1
RAIN DAY
14.4
TEMPERATURE (°C)
LOW
7.9
HIGH
12.3
AVERAGE
10.0
PRESSURE (hpa)
LOW
1004.0
HIGH
1021.3
AVERAGE
1011.5
DEVICE